Time;durP1;ratioP1;P1;durP2;ratioP2;P2;SDS_P1;SDS_P2;PMS_P1;PMS_P2;Temp;Humidity;BMP_temperature;BMP_pressure;BME280_temperature;BME280_humidity;BME280_pressure;Samples;Min_cycle;Max_cycle;Signal;HPM_P1;HPM_P2
2022/07/20 00:00:08;;;;;;;7.90;4.30;;;;;;;21.62;47.06;99966.72;4961813;28;20191;-66
2022/07/20 00:02:34;;;;;;;7.90;3.77;;;;;;;21.48;47.42;99973.34;4986889;28;20682;-65
2022/07/20 00:04:59;;;;;;;8.80;4.33;;;;;;;21.44;46.92;99970.22;4972763;28;20194;-65
2022/07/20 00:07:25;;;;;;;8.70;4.10;;;;;;;21.42;46.72;99971.34;4972930;28;21001;-65
2022/07/20 00:12:34;;;;;;;10.13;3.73;;;;;;;21.37;47.34;99965.78;4968404;28;20234;-65
2022/07/20 00:14:59;;;;;;;7.73;4.30;;;;;;;21.47;46.87;99970.88;4976724;28;20637;-66
2022/07/20 00:17:24;;;;;;;10.63;3.87;;;;;;;21.50;46.60;99968.78;4977237;28;20179;-65
2022/07/20 00:19:50;;;;;;;8.93;3.70;;;;;;;21.57;46.94;99966.34;4976697;28;20194;-65
2022/07/20 00:22:15;;;;;;;13.83;4.40;;;;;;;21.52;47.26;99968.59;4966796;28;20318;-65
2022/07/20 00:24:40;;;;;;;7.63;3.73;;;;;;;21.49;47.44;99961.09;4975604;28;20258;-65
2022/07/20 00:27:05;;;;;;;10.63;4.53;;;;;;;21.47;47.56;99966.47;4976729;28;20196;-65
2022/07/20 00:29:31;;;;;;;6.97;4.13;;;;;;;21.37;48.32;99965.78;4976312;28;20184;-65
2022/07/20 00:31:56;;;;;;;6.57;3.90;;;;;;;21.28;48.97;99963.13;4968676;28;20752;-65
2022/07/20 00:34:21;;;;;;;5.07;3.30;;;;;;;21.33;48.99;99960.03;4991672;28;20180;-65
2022/07/20 00:36:47;;;;;;;5.47;4.30;;;;;;;21.20;50.23;99957.88;4976678;28;20535;-65
2022/07/20 00:39:12;;;;;;;11.20;4.47;;;;;;;21.19;50.25;99952.78;4976404;28;20599;-65
2022/07/20 00:41:38;;;;;;;5.57;3.57;;;;;;;21.20;50.77;99952.63;4978755;28;20223;-66
2022/07/20 00:44:09;;;;;;;15.70;4.30;;;;;;;21.11;50.77;99961.41;4979147;28;20214;-66
2022/07/20 00:46:37;;;;;;;10.90;3.50;;;;;;;21.06;50.96;99958.44;4975335;28;20550;-66
2022/07/20 00:49:06;;;;;;;18.70;5.07;;;;;;;21.19;50.93;99960.63;4975963;28;20205;-66
2022/07/20 00:51:33;;;;;;;5.27;4.00;;;;;;;21.09;51.46;99958.94;4977947;28;20327;-66
2022/07/20 00:53:59;;;;;;;7.90;3.93;;;;;;;21.16;51.51;99956.53;4979658;28;20180;-66
2022/07/20 00:56:25;;;;;;;7.20;4.40;;;;;;;21.13;51.74;99954.22;4976098;28;20223;-66
2022/07/20 00:58:50;;;;;;;6.83;4.37;;;;;;;21.12;52.03;99965.66;4975688;28;20192;-66
2022/07/20 01:01:16;;;;;;;9.23;4.07;;;;;;;20.97;53.23;99957.56;4974976;28;20218;-66
2022/07/20 01:03:42;;;;;;;7.40;3.90;;;;;;;20.88;53.93;99953.28;4981963;28;20220;-66
2022/07/20 01:06:08;;;;;;;5.90;3.90;;;;;;;20.91;53.45;99947.72;4976027;28;20292;-66
2022/07/20 01:08:34;;;;;;;12.00;4.20;;;;;;;20.93;53.49;99957.06;4970874;28;20228;-67
2022/07/20 01:10:59;;;;;;;7.77;4.10;;;;;;;20.93;53.44;99954.44;4963807;28;20235;-66
2022/07/20 01:13:25;;;;;;;7.40;4.40;;;;;;;20.96;52.68;99955.94;4969937;28;20184;-66
2022/07/20 01:15:50;;;;;;;7.70;4.47;;;;;;;20.87;53.67;99959.47;4976011;28;20207;-66
2022/07/20 01:18:16;;;;;;;7.53;4.53;;;;;;;20.78;53.77;99958.63;4974499;28;20184;-66
2022/07/20 01:20:46;;;;;;;7.87;4.53;;;;;;;20.67;54.40;99951.81;4970464;28;20231;-66
2022/07/20 01:23:12;;;;;;;5.43;4.13;;;;;;;20.62;54.62;99951.44;4985308;28;20192;-66
2022/07/20 01:25:38;;;;;;;11.67;4.10;;;;;;;20.53;55.51;99958.41;4974343;28;20519;-66
2022/07/20 01:28:22;;;;;;;14.60;4.30;;;;;;;20.52;55.06;99951.53;4975382;28;20203;-66
2022/07/20 01:30:47;;;;;;;10.17;4.87;;;;;;;20.54;54.93;99947.00;4970819;28;20229;-66
2022/07/20 01:33:13;;;;;;;9.53;4.70;;;;;;;20.69;54.92;99951.66;4990691;28;20180;-65
2022/07/20 01:35:38;;;;;;;11.17;5.03;;;;;;;20.54;55.33;99944.38;4975264;28;20666;-65
2022/07/20 01:38:04;;;;;;;7.40;4.33;;;;;;;20.64;54.85;99950.31;4975361;28;20199;-65
2022/07/20 01:40:29;;;;;;;9.90;4.37;;;;;;;20.62;54.97;99951.44;4982813;28;20667;-66
2022/07/20 01:42:54;;;;;;;10.90;4.67;;;;;;;20.48;55.72;99948.41;4974238;28;20184;-66
2022/07/20 01:45:20;;;;;;;10.10;4.10;;;;;;;20.44;56.00;99949.69;4974385;28;20184;-65
2022/07/20 01:47:45;;;;;;;7.50;4.60;;;;;;;20.34;56.76;99951.56;4973970;28;20267;-65
2022/07/20 01:50:10;;;;;;;8.37;4.83;;;;;;;20.45;55.55;99942.66;4965561;28;20195;-65
2022/07/20 01:52:36;;;;;;;8.17;4.23;;;;;;;20.41;56.25;99951.78;4989137;28;20196;-65
2022/07/20 01:55:02;;;;;;;8.10;4.17;;;;;;;20.38;56.01;99950.28;4975149;28;20223;-65
2022/07/20 01:57:28;;;;;;;6.63;4.53;;;;;;;20.35;56.71;99945.34;4975413;28;20199;-65
2022/07/20 01:59:53;;;;;;;5.83;4.47;;;;;;;20.28;57.20;99944.31;4974701;28;20271;-65
2022/07/20 02:02:18;;;;;;;9.97;4.30;;;;;;;20.35;56.82;99945.34;4964542;28;20223;-65
2022/07/20 02:04:43;;;;;;;9.37;4.50;;;;;;;20.26;57.73;99948.88;4975194;28;20192;-65
2022/07/20 02:07:09;;;;;;;9.07;4.53;;;;;;;20.20;58.75;99957.31;4974615;28;20702;-66
2022/07/20 02:09:35;;;;;;;10.07;4.53;;;;;;;20.10;59.74;99957.41;4989394;28;20271;-65
2022/07/20 02:12:00;;;;;;;5.90;4.50;;;;;;;20.02;59.83;99952.09;4965825;28;20226;-65
2022/07/20 02:14:26;;;;;;;6.33;4.13;;;;;;;19.94;59.80;99950.22;4975242;28;20188;-65
2022/07/20 02:16:51;;;;;;;5.87;3.90;;;;;;;19.91;58.14;99955.72;4974771;28;20687;-66
2022/07/20 02:19:16;;;;;;;6.20;4.40;;;;;;;19.98;57.61;99955.00;4974467;28;20187;-66
2022/07/20 02:21:42;;;;;;;7.67;4.73;;;;;;;19.89;57.82;99948.06;4960604;28;20315;-66
2022/07/20 02:24:07;;;;;;;6.53;4.10;;;;;;;19.84;59.24;99953.72;4969502;28;20192;-66
2022/07/20 02:26:32;;;;;;;9.80;4.23;;;;;;;19.95;58.67;99946.66;4989531;28;20278;-65
2022/07/20 02:28:58;;;;;;;4.67;4.17;;;;;;;19.90;58.72;99952.31;4973982;28;20187;-66
2022/07/20 02:31:23;;;;;;;5.80;3.67;;;;;;;19.92;58.47;99953.00;4966509;28;20238;-65
2022/07/20 02:33:50;;;;;;;8.43;4.43;;;;;;;19.97;58.06;99953.38;4970087;28;20173;-65
2022/07/20 02:36:17;;;;;;;8.47;4.53;;;;;;;19.99;58.31;99955.81;4967389;28;20208;-65
2022/07/20 02:38:43;;;;;;;7.27;4.40;;;;;;;19.93;58.39;99946.81;4964800;28;20195;-66
2022/07/20 02:41:09;;;;;;;8.83;4.30;;;;;;;19.82;59.46;99950.41;4972670;28;20718;-65
2022/07/20 02:43:34;;;;;;;6.40;4.57;;;;;;;19.73;60.30;99958.31;4973174;28;20188;-65
2022/07/20 02:45:59;;;;;;;6.27;4.50;;;;;;;19.60;60.73;99941.22;4969986;28;20239;-65
2022/07/20 02:48:25;;;;;;;11.07;4.43;;;;;;;19.47;62.24;99945.94;4974323;28;20176;-65
2022/07/20 02:50:50;;;;;;;8.03;4.47;;;;;;;19.51;61.30;99942.91;4969956;28;20747;-66
2022/07/20 02:53:16;;;;;;;8.27;4.37;;;;;;;19.52;61.81;99947.16;4982800;28;20263;-65
2022/07/20 02:55:42;;;;;;;7.87;4.20;;;;;;;19.49;61.73;99944.84;4974238;28;20212;-66
2022/07/20 02:58:08;;;;;;;9.70;4.80;;;;;;;19.52;62.09;99947.16;4973653;28;20603;-65
2022/07/20 03:00:33;;;;;;;9.83;4.87;;;;;;;19.59;61.92;99930.94;4952297;28;20235;-65
2022/07/20 03:02:59;;;;;;;6.80;4.10;;;;;;;19.55;62.20;99935.63;4972791;28;20227;-66
2022/07/20 03:05:25;;;;;;;6.10;4.37;;;;;;;19.60;62.16;99943.00;4973980;28;20230;-66
2022/07/20 03:07:50;;;;;;;6.27;4.00;;;;;;;19.50;62.33;99932.63;4973926;28;20347;-65
2022/07/20 03:10:16;;;;;;;7.10;4.70;;;;;;;19.56;62.05;99933.81;4961643;28;20180;-66
2022/07/20 03:12:41;;;;;;;12.77;4.33;;;;;;;19.44;63.02;99936.63;4968191;28;20200;-66
2022/07/20 03:15:07;;;;;;;7.10;3.97;;;;;;;19.41;63.20;99936.09;4979069;28;20314;-66
2022/07/20 03:17:40;;;;;;;7.07;4.40;;;;;;;19.43;62.62;99937.59;4972460;28;20182;-65
2022/07/20 03:20:06;;;;;;;4.87;4.23;;;;;;;19.44;62.54;99941.03;4963391;28;20193;-66
2022/07/20 03:22:31;;;;;;;9.30;4.23;;;;;;;19.35;63.37;99940.94;4987890;28;20566;-66
2022/07/20 03:24:56;;;;;;;9.30;4.60;;;;;;;19.34;63.55;99944.50;4973787;28;20184;-65
2022/07/20 03:27:21;;;;;;;6.70;4.17;;;;;;;19.31;64.71;99954.38;4973789;28;20606;-65
2022/07/20 03:29:47;;;;;;;6.87;4.20;;;;;;;19.25;65.00;99957.56;4973066;28;20181;-65
2022/07/20 03:32:12;;;;;;;7.40;4.10;;;;;;;19.27;64.72;99960.88;4958394;28;20706;-65
2022/07/20 03:34:37;;;;;;;7.87;4.10;;;;;;;19.18;63.68;99965.97;4988315;28;20204;-65
2022/07/20 03:37:02;;;;;;;7.37;4.23;;;;;;;19.10;63.67;99958.06;4973096;28;20208;-66
2022/07/20 03:39:28;;;;;;;10.33;4.23;;;;;;;19.08;62.81;99959.97;4973050;28;20180;-65
2022/07/20 03:41:53;;;;;;;6.30;4.10;;;;;;;19.18;62.33;99965.97;4977211;28;20309;-66
2022/07/20 03:44:18;;;;;;;8.70;4.40;;;;;;;19.10;61.44;99963.28;4974439;28;20222;-66
2022/07/20 03:46:44;;;;;;;5.13;3.93;;;;;;;19.14;60.83;99967.22;4973004;28;20272;-65
2022/07/20 03:49:09;;;;;;;9.37;4.67;;;;;;;19.19;61.90;99965.00;4972583;28;20623;-66
2022/07/20 03:51:37;;;;;;;9.23;4.40;;;;;;;19.15;62.79;99961.06;4974667;28;20231;-66
2022/07/20 03:54:03;;;;;;;8.23;4.97;;;;;;;19.19;63.09;99967.63;4971455;28;20641;-66
2022/07/20 03:56:29;;;;;;;11.90;4.90;;;;;;;19.20;63.23;99960.59;4972967;28;20302;-66
2022/07/20 03:58:54;;;;;;;7.13;4.20;;;;;;;19.29;63.47;99958.94;4987594;28;20200;-66
2022/07/20 04:01:19;;;;;;;6.30;4.43;;;;;;;19.39;62.89;99966.69;4972851;28;20232;-65
2022/07/20 04:03:44;;;;;;;5.87;4.50;;;;;;;19.49;62.80;99970.91;4978052;28;20670;-65
2022/07/20 04:06:10;;;;;;;4.87;3.93;;;;;;;19.60;61.79;99971.72;4987478;28;20195;-65
2022/07/20 04:08:35;;;;;;;6.73;4.57;;;;;;;19.57;62.77;99970.19;4972204;28;20687;-65
2022/07/20 04:11:00;;;;;;;6.47;4.37;;;;;;;19.49;62.98;99960.47;4964475;28;20266;-66
2022/07/20 04:13:25;;;;;;;6.77;4.70;;;;;;;19.74;62.49;99970.38;4980560;28;20188;-65
2022/07/20 04:15:51;;;;;;;4.87;4.23;;;;;;;19.89;62.52;99963.72;4972755;28;20204;-65
2022/07/20 04:18:17;;;;;;;7.50;4.43;;;;;;;19.97;61.12;99966.41;4972549;28;20650;-65
2022/07/20 04:20:42;;;;;;;9.10;4.20;;;;;;;20.04;61.10;99971.06;4967440;28;20225;-65
2022/07/20 04:23:08;;;;;;;6.67;4.90;;;;;;;20.18;60.99;99975.75;4971255;28;20216;-65
2022/07/20 04:25:33;;;;;;;6.30;4.40;;;;;;;20.27;60.43;99977.47;4968396;28;20240;-65
2022/07/20 04:27:58;;;;;;;6.73;4.57;;;;;;;20.36;59.61;99983.56;4962755;28;20185;-65
2022/07/20 04:30:24;;;;;;;5.50;4.60;;;;;;;20.37;59.28;99981.81;4951891;28;20219;-65
2022/07/20 04:32:49;;;;;;;10.37;4.40;;;;;;;20.43;58.81;99987.22;4984803;28;20631;-65
2022/07/20 04:35:15;;;;;;;8.17;4.30;;;;;;;20.59;57.89;99978.72;4972239;28;20204;-65
2022/07/20 04:37:40;;;;;;;8.43;4.07;;;;;;;20.71;58.17;99978.47;4972603;28;20184;-66
2022/07/20 04:40:06;;;;;;;13.20;5.97;;;;;;;20.82;58.55;99975.63;4962448;28;20953;-66
2022/07/20 04:42:32;;;;;;;7.97;5.10;;;;;;;20.89;57.59;99971.41;4987021;28;20188;-65
2022/07/20 04:44:58;;;;;;;8.60;5.10;;;;;;;21.02;57.34;99973.59;4972713;28;20180;-65
2022/07/20 04:47:23;;;;;;;9.03;4.87;;;;;;;21.16;56.22;99974.84;4972527;28;20187;-65
2022/07/20 04:49:48;;;;;;;8.47;4.60;;;;;;;21.19;56.60;99979.75;4967452;28;20268;-65
2022/07/20 04:52:14;;;;;;;10.83;4.40;;;;;;;21.33;57.14;99980.16;4945655;28;20311;-65
2022/07/20 04:54:41;;;;;;;17.37;4.80;;;;;;;21.44;56.81;99988.53;4969437;28;20211;-66
2022/07/20 04:57:06;;;;;;;10.90;4.90;;;;;;;21.64;55.95;99987.50;4972593;28;20183;-65
2022/07/20 04:59:31;;;;;;;8.13;4.53;;;;;;;21.84;55.72;100003.75;4970811;28;20184;-66
2022/07/20 05:01:57;;;;;;;8.63;4.70;;;;;;;21.99;55.79;100004.78;4980246;28;20317;-66
2022/07/20 05:04:22;;;;;;;8.67;4.57;;;;;;;22.23;54.87;100000.56;4976505;28;20211;-66
2022/07/20 05:06:47;;;;;;;8.67;4.63;;;;;;;22.42;52.54;99994.22;4975859;28;20184;-66
2022/07/20 05:09:13;;;;;;;8.77;5.27;;;;;;;22.68;51.07;99990.59;4975142;28;20366;-66
2022/07/20 05:11:39;;;;;;;7.80;4.90;;;;;;;22.98;49.21;99993.50;4970105;28;20236;-66
2022/07/20 05:14:04;;;;;;;15.87;5.17;;;;;;;23.28;48.50;99993.75;4964577;28;20260;-66
2022/07/20 05:16:29;;;;;;;13.30;5.70;;;;;;;23.68;47.59;99998.03;4975723;28;20208;-66
2022/07/20 05:18:55;;;;;;;12.13;5.00;;;;;;;24.00;46.93;99996.25;4979492;28;20638;-66
2022/07/20 05:21:21;;;;;;;10.27;4.60;;;;;;;24.34;46.10;99991.56;4973173;28;20757;-66
2022/07/20 05:23:46;;;;;;;6.87;4.77;;;;;;;24.47;44.65;99988.31;4963671;28;20212;-66
2022/07/20 05:26:11;;;;;;;10.00;5.10;;;;;;;24.86;43.42;99989.16;4975584;28;20199;-65
2022/07/20 05:28:41;;;;;;;7.00;3.70;;;;;;;25.04;42.09;99986.19;4973625;28;20243;-66
2022/07/20 05:31:08;;;;;;;9.17;4.80;;;;;;;25.29;40.72;99989.34;4967389;28;20227;-66
2022/07/20 05:33:34;;;;;;;7.37;4.67;;;;;;;25.43;42.03;99996.44;4990472;28;20177;-66
2022/07/20 05:36:02;;;;;;;9.03;4.80;;;;;;;25.72;41.22;100000.00;4974843;28;20210;-66
2022/07/20 05:38:28;;;;;;;8.97;4.60;;;;;;;26.01;41.82;100005.38;4974376;28;20196;-66
2022/07/20 05:40:53;;;;;;;8.73;4.50;;;;;;;26.29;41.06;100008.09;4971323;28;20309;-66
2022/07/20 05:43:18;;;;;;;8.43;4.07;;;;;;;26.66;39.30;100015.94;4983941;28;20191;-66
2022/07/20 05:45:44;;;;;;;6.47;3.70;;;;;;;26.70;39.59;100017.97;4973959;28;20238;-66
2022/07/20 05:48:11;;;;;;;7.07;4.20;;;;;;;26.45;36.55;100016.78;4975023;28;20180;-66
2022/07/20 05:50:37;;;;;;;6.95;4.30;;;;;;;26.66;36.97;100021.22;4966316;28;20625;-66
2022/07/20 05:53:02;;;;;;;9.80;3.90;;;;;;;26.74;36.23;100019.28;4985964;28;20188;-66
2022/07/20 05:55:27;;;;;;;10.35;3.88;;;;;;;26.88;36.07;100019.38;4990148;28;20644;-66
2022/07/20 05:57:53;;;;;;;9.43;4.38;;;;;;;26.96;35.31;100019.19;4973604;28;20244;-66
2022/07/20 06:00:18;;;;;;;8.98;4.55;;;;;;;26.97;35.15;100010.28;4964745;28;20742;-66
2022/07/20 06:02:44;;;;;;;8.35;4.10;;;;;;;27.13;35.71;100018.88;4987491;28;20295;-66
2022/07/20 06:05:09;;;;;;;17.65;5.03;;;;;;;27.21;36.14;100011.66;4975219;28;20227;-66
2022/07/20 06:07:34;;;;;;;13.93;4.38;;;;;;;27.09;37.39;100021.13;4974877;28;20262;-65
2022/07/20 06:10:00;;;;;;;6.70;3.78;;;;;;;27.15;36.53;100016.88;4970524;28;20222;-66
2022/07/20 06:12:25;;;;;;;13.27;4.38;;;;;;;27.31;34.32;100015.72;4951705;28;20290;-66
2022/07/20 06:14:50;;;;;;;9.48;4.65;;;;;;;27.46;34.41;100011.19;4974665;28;20342;-66
2022/07/20 06:17:16;;;;;;;17.08;4.97;;;;;;;27.51;35.00;100019.31;4974879;28;20284;-66
2022/07/20 06:19:41;;;;;;;12.23;4.22;;;;;;;27.27;35.37;100007.38;4974109;28;20184;-66
2022/07/20 06:22:06;;;;;;;14.70;3.85;;;;;;;27.20;35.28;100003.91;4979543;28;20322;-66
2022/07/20 06:24:31;;;;;;;12.23;4.53;;;;;;;27.14;34.45;100000.22;4974797;28;20191;-66
2022/07/20 06:26:57;;;;;;;11.05;3.83;;;;;;;27.31;34.60;100008.63;4973387;28;20263;-66
2022/07/20 06:29:22;;;;;;;5.50;3.80;;;;;;;27.91;33.69;100008.06;4974450;28;20219;-66
2022/07/20 06:31:47;;;;;;;5.55;3.67;;;;;;;28.23;32.72;100015.44;4978086;28;20222;-66
2022/07/20 06:34:13;;;;;;;5.35;3.15;;;;;;;28.53;32.61;100018.53;4975887;28;20698;-66
2022/07/20 06:36:38;;;;;;;5.20;3.85;;;;;;;29.21;31.12;100016.59;4969910;28;20287;-66
2022/07/20 06:39:04;;;;;;;7.18;3.10;;;;;;;29.65;30.12;100022.16;4968474;28;20299;-66
2022/07/20 06:41:29;;;;;;;7.78;3.50;;;;;;;30.46;29.39;100017.97;4975286;28;20226;-66
2022/07/20 06:43:54;;;;;;;8.70;3.78;;;;;;;31.00;28.19;100023.63;4978509;28;20187;-67
2022/07/20 06:46:20;;;;;;;7.65;3.47;;;;;;;32.66;25.41;100023.41;4974083;28;20690;-66
2022/07/20 06:48:45;;;;;;;10.43;3.00;;;;;;;32.94;25.30;100025.38;4973584;28;20594;-67
2022/07/20 06:51:10;;;;;;;7.43;3.55;;;;;;;33.38;24.16;100022.31;4972784;28;20231;-67
2022/07/20 06:53:35;;;;;;;8.35;3.45;;;;;;;33.80;23.67;100026.53;4972870;28;20184;-67
2022/07/20 06:56:01;;;;;;;9.00;3.88;;;;;;;33.51;23.69;100034.53;4988545;28;20208;-67
2022/07/20 06:58:26;;;;;;;6.13;3.38;;;;;;;34.59;22.25;100033.72;4973995;28;20593;-67
2022/07/20 07:00:51;;;;;;;6.82;3.67;;;;;;;35.17;21.84;100041.47;4960018;28;20234;-67
2022/07/20 07:03:17;;;;;;;5.32;3.15;;;;;;;35.77;21.02;100038.91;4982594;28;20232;-67
2022/07/20 07:05:42;;;;;;;8.05;3.40;;;;;;;36.61;21.06;100044.72;4969286;28;20195;-67
2022/07/20 07:08:07;;;;;;;9.75;3.58;;;;;;;36.65;19.89;100047.69;4971247;28;20232;-67
2022/07/20 07:10:33;;;;;;;14.73;3.70;;;;;;;38.11;18.52;100047.91;4962054;28;20228;-68
2022/07/20 07:12:58;;;;;;;9.77;3.47;;;;;;;36.39;20.60;100041.34;4976820;28;20184;-67
2022/07/20 07:15:24;;;;;;;12.13;3.38;;;;;;;35.94;20.78;100046.88;4966239;28;20243;-68
2022/07/20 07:17:49;;;;;;;8.88;3.92;;;;;;;36.56;19.70;100049.25;4985822;28;20187;-67
2022/07/20 07:20:14;;;;;;;9.82;3.47;;;;;;;37.46;18.98;100045.66;4964583;28;20188;-67
2022/07/20 07:22:39;;;;;;;6.80;2.95;;;;;;;38.16;18.55;100047.09;4986605;28;20682;-67
2022/07/20 07:25:06;;;;;;;16.83;3.50;;;;;;;38.53;18.32;100051.34;4973727;28;20188;-67
2022/07/20 07:27:31;;;;;;;13.05;3.47;;;;;;;38.74;17.64;100052.94;4972258;28;20184;-67
2022/07/20 07:29:56;;;;;;;7.88;4.25;;;;;;;38.60;18.14;100049.19;4973047;28;20679;-68
2022/07/20 07:32:22;;;;;;;10.70;3.58;;;;;;;39.15;17.30;100049.31;4958697;28;20222;-67
2022/07/20 07:34:47;;;;;;;16.23;4.00;;;;;;;36.81;19.74;100045.88;4972282;28;20622;-67
2022/07/20 07:37:12;;;;;;;12.00;3.65;;;;;;;38.02;18.90;100046.81;4973414;28;20188;-67
2022/07/20 07:39:37;;;;;;;10.70;3.55;;;;;;;37.03;19.36;100044.94;4973452;28;20200;-67
2022/07/20 07:42:03;;;;;;;6.07;3.55;;;;;;;38.06;18.93;100040.66;4978148;28;20235;-67
2022/07/20 07:44:28;;;;;;;10.52;3.45;;;;;;;38.21;18.47;100042.50;4973261;28;20275;-67
2022/07/20 07:46:54;;;;;;;12.68;3.80;;;;;;;39.16;18.12;100047.41;4973430;28;20545;-67
2022/07/20 07:49:19;;;;;;;6.18;3.65;;;;;;;38.69;18.22;100044.06;4972664;28;20187;-67
2022/07/20 07:51:44;;;;;;;8.05;4.53;;;;;;;38.06;18.12;100047.91;4976294;28;20721;-67
2022/07/20 07:54:09;;;;;;;7.18;3.45;;;;;;;38.13;18.93;100053.78;4975186;28;20198;-67
2022/07/20 07:56:35;;;;;;;10.57;4.45;;;;;;;38.79;18.18;100059.38;4973321;28;20229;-66
2022/07/20 07:59:01;;;;;;;6.25;3.25;;;;;;;40.48;16.59;100048.66;4972861;28;20188;-67
2022/07/20 08:01:27;;;;;;;9.65;3.72;;;;;;;41.49;15.08;100057.72;4973644;28;20223;-67
2022/07/20 08:03:52;;;;;;;6.82;3.88;;;;;;;42.44;14.89;100055.94;4977586;28;20216;-67
2022/07/20 08:06:17;;;;;;;8.27;2.92;;;;;;;41.32;15.20;100068.19;4973335;28;20200;-67
2022/07/20 08:08:43;;;;;;;8.45;3.28;;;;;;;43.04;13.70;100073.97;4972752;28;20263;-67
2022/07/20 08:11:08;;;;;;;7.05;3.33;;;;;;;44.18;13.66;100086.53;4961425;28;20671;-66
2022/07/20 08:13:33;;;;;;;7.47;3.30;;;;;;;44.42;13.08;100081.91;4976304;28;20191;-67
2022/07/20 08:15:59;;;;;;;11.40;3.38;;;;;;;44.67;12.73;100076.88;4972752;28;20196;-67
2022/07/20 08:18:24;;;;;;;10.02;3.47;;;;;;;45.11;13.29;100073.16;4973190;28;20234;-67
2022/07/20 08:20:50;;;;;;;7.40;2.90;;;;;;;46.03;12.40;100076.84;4964384;28;20223;-67
2022/07/20 08:23:15;;;;;;;7.10;3.17;;;;;;;46.38;12.42;100082.22;4982023;28;20194;-67
2022/07/20 08:25:41;;;;;;;6.95;3.00;;;;;;;46.94;11.11;100084.00;4977043;28;20186;-67
2022/07/20 08:28:11;;;;;;;10.75;3.38;;;;;;;45.58;12.20;100083.47;4982218;28;20184;-67
2022/07/20 08:30:41;;;;;;;5.22;3.00;;;;;;;43.65;13.00;100081.88;4966686;28;20238;-67
2022/07/20 08:33:07;;;;;;;8.27;3.50;;;;;;;42.10;14.63;100072.19;4983789;28;20189;-67
2022/07/20 08:35:33;;;;;;;5.43;3.13;;;;;;;42.57;13.47;100079.47;4976718;28;20207;-67
2022/07/20 08:37:58;;;;;;;8.50;3.47;;;;;;;43.23;13.86;100081.97;4976350;28;20187;-67
2022/07/20 08:40:25;;;;;;;6.40;3.42;;;;;;;43.38;13.98;100078.94;4967745;28;20226;-67
2022/07/20 08:42:50;;;;;;;5.72;3.47;;;;;;;43.53;13.45;100080.53;4988810;28;20199;-67
2022/07/20 08:45:15;;;;;;;5.72;3.20;;;;;;;45.32;12.43;100093.53;4976617;28;20199;-67
2022/07/20 08:47:44;;;;;;;7.22;3.22;;;;;;;44.76;12.70;100092.09;4991247;28;20628;-67
2022/07/20 08:50:10;;;;;;;9.00;3.17;;;;;;;45.62;12.76;100099.91;4966716;28;20175;-67
2022/07/20 08:52:35;;;;;;;6.95;3.63;;;;;;;45.48;12.88;100110.09;4990421;28;20702;-67
2022/07/20 08:55:00;;;;;;;6.20;3.80;;;;;;;44.97;12.40;100118.66;4976518;28;20299;-67
2022/07/20 08:57:26;;;;;;;9.10;3.42;;;;;;;45.71;12.24;100111.59;4976405;28;20508;-67
2022/07/20 08:59:51;;;;;;;7.32;3.28;;;;;;;44.84;13.16;100114.94;4975593;28;20176;-67
2022/07/20 09:02:17;;;;;;;6.55;3.70;;;;;;;41.73;14.51;100103.53;4981246;28;20238;-67
2022/07/20 09:04:55;;;;;;;7.72;3.58;;;;;;;42.18;14.63;100099.63;4976181;28;20215;-67
2022/07/20 09:07:44;;;;;;;10.23;3.20;;;;;;;41.56;15.43;100100.56;4974812;28;20227;-67
2022/07/20 09:10:18;;;;;;;9.80;3.53;;;;;;;44.14;13.77;100106.47;4950997;28;20188;-67
2022/07/20 09:12:51;;;;;;;8.40;4.00;;;;;;;44.24;13.47;100103.47;4978763;28;20266;-67
2022/07/20 09:15:27;;;;;;;5.82;3.78;;;;;;;43.68;13.48;100092.91;4974555;28;20282;-67
2022/07/20 09:18:21;;;;;;;8.13;3.50;;;;;;;43.30;13.50;100087.78;4974649;28;20199;-66
2022/07/20 09:21:00;;;;;;;10.25;4.03;;;;;;;44.13;13.36;100094.81;4970965;28;20415;-67
2022/07/20 09:23:31;;;;;;;7.90;3.67;;;;;;;45.76;12.25;100091.59;4983885;28;20191;-67
2022/07/20 09:26:03;;;;;;;11.27;3.63;;;;;;;46.52;11.56;100089.31;4976043;28;20180;-67
2022/07/20 09:28:42;;;;;;;8.93;3.58;;;;;;;47.32;11.37;100087.75;4975863;28;20192;-67
2022/07/20 09:31:21;;;;;;;8.88;3.88;;;;;;;47.37;10.42;100087.53;4961466;28;20296;-67
2022/07/20 09:34:09;;;;;;;7.35;3.78;;;;;;;47.18;10.60;100079.88;4981109;28;20273;-68
2022/07/20 09:36:37;;;;;;;6.60;3.97;;;;;;;46.07;11.39;100074.28;4975557;28;20214;-67
2022/07/20 09:39:07;;;;;;;8.15;4.28;;;;;;;46.37;10.99;100075.16;4973796;28;20192;-67
2022/07/20 09:41:33;;;;;;;6.53;3.83;;;;;;;46.03;11.97;100070.63;4976753;28;20230;-67
2022/07/20 09:44:00;;;;;;;8.60;3.85;;;;;;;46.50;11.83;100078.00;4978992;28;20539;-67
2022/07/20 09:46:28;;;;;;;6.45;4.10;;;;;;;47.62;10.75;100068.59;4975893;28;20195;-67
2022/07/20 09:48:56;;;;;;;8.13;3.92;;;;;;;46.86;12.18;100061.16;4975137;28;20194;-67
2022/07/20 09:51:29;;;;;;;9.75;3.90;;;;;;;48.29;10.17;100068.53;4967317;28;20342;-67
2022/07/20 09:53:59;;;;;;;8.70;4.00;;;;;;;47.33;10.33;100057.47;4979585;28;20198;-67
2022/07/20 09:56:26;;;;;;;7.80;3.63;;;;;;;47.16;10.71;100060.34;4975021;28;20666;-67
2022/07/20 09:58:54;;;;;;;5.20;3.53;;;;;;;47.19;10.34;100055.03;4974799;28;20215;-67
2022/07/20 10:01:26;;;;;;;13.07;4.00;;;;;;;47.95;10.43;100057.69;4974946;28;20416;-67
2022/07/20 10:03:53;;;;;;;8.48;4.07;;;;;;;46.18;11.88;100051.06;4973673;28;20207;-67
2022/07/20 10:06:20;;;;;;;11.60;3.70;;;;;;;45.92;12.92;100054.69;4974813;28;20195;-67
2022/07/20 10:08:46;;;;;;;7.95;3.65;;;;;;;44.81;13.03;100055.91;4972896;28;20697;-67
2022/07/20 10:11:12;;;;;;;8.93;4.10;;;;;;;45.37;12.04;100060.78;4963434;28;20314;-67
2022/07/20 10:13:39;;;;;;;12.70;3.90;;;;;;;45.84;11.68;100055.47;4978351;28;20191;-67
2022/07/20 10:16:27;;;;;;;13.88;4.22;;;;;;;44.76;12.26;100056.84;4974580;28;20294;-67
2022/07/20 10:18:54;;;;;;;12.10;3.30;;;;;;;43.47;13.18;100051.16;4974079;28;20680;-67
2022/07/20 10:21:37;;;;;;;9.43;3.85;;;;;;;41.46;15.62;100051.00;4974183;28;20222;-67
2022/07/20 10:24:30;;;;;;;7.63;4.05;;;;;;;44.13;13.95;100053.38;4977874;28;20714;-67
2022/07/20 10:27:16;;;;;;;11.77;4.18;;;;;;;46.36;12.22;100051.81;4975041;28;20263;-67
2022/07/20 10:29:47;;;;;;;9.75;4.20;;;;;;;44.49;13.16;100042.38;4973836;28;20183;-67
2022/07/20 10:32:16;;;;;;;12.73;4.47;;;;;;;46.39;11.77;100050.38;4964861;28;20334;-67
2022/07/20 10:35:01;;;;;;;10.48;4.03;;;;;;;44.92;12.54;100045.56;4974593;28;20190;-67
2022/07/20 10:37:41;;;;;;;10.38;4.03;;;;;;;43.96;12.92;100056.78;4970741;28;20604;-67
2022/07/20 10:40:22;;;;;;;12.82;4.20;;;;;;;44.26;12.52;100047.06;4959785;28;20524;-67
2022/07/20 10:43:07;;;;;;;13.50;4.20;;;;;;;44.09;12.61;100042.34;4988587;28;20218;-67
2022/07/20 10:45:34;;;;;;;8.73;4.40;;;;;;;43.50;13.00;100040.50;4974455;28;20187;-67
2022/07/20 10:48:11;;;;;;;6.88;4.50;;;;;;;41.35;14.90;100036.03;4972445;28;20264;-67
2022/07/20 10:50:54;;;;;;;10.02;3.97;;;;;;;41.28;14.53;100032.91;4975544;28;20317;-67
2022/07/20 10:53:29;;;;;;;11.13;4.85;;;;;;;40.10;15.74;100024.22;4989222;28;20187;-67
2022/07/20 10:55:59;;;;;;;8.80;4.05;;;;;;;38.86;17.13;100015.03;4973087;28;20602;-67
2022/07/20 10:58:31;;;;;;;7.03;4.72;;;;;;;38.25;17.61;100008.66;4988973;28;20643;-66
2022/07/20 11:01:02;;;;;;;5.93;4.53;;;;;;;36.87;19.03;100010.03;4959979;28;20227;-67
2022/07/20 11:03:35;;;;;;;11.63;4.93;;;;;;;36.27;19.38;100010.19;4972851;28;20207;-67
2022/07/20 11:06:13;;;;;;;5.63;4.15;;;;;;;35.66;20.30;100007.78;4973763;28;20184;-67
2022/07/20 11:08:44;;;;;;;14.30;4.50;;;;;;;35.54;20.27;100006.06;4969036;28;20695;-67
2022/07/20 11:11:18;;;;;;;11.02;4.82;;;;;;;35.68;20.42;100000.31;4960210;28;20238;-66
2022/07/20 11:13:46;;;;;;;9.55;5.03;;;;;;;36.24;20.48;99988.47;4979609;28;20538;-67
2022/07/20 11:16:11;;;;;;;7.63;4.45;;;;;;;36.14;20.08;99986.53;4972059;28;20726;-67
2022/07/20 11:18:38;;;;;;;8.90;4.95;;;;;;;36.30;19.70;99987.44;4979397;28;20199;-67
2022/07/20 11:21:11;;;;;;;7.95;4.43;;;;;;;36.28;20.08;99989.56;4971458;28;20732;-67
2022/07/20 11:23:50;;;;;;;13.27;4.60;;;;;;;36.35;20.08;99996.28;4979734;28;20184;-67
2022/07/20 11:26:21;;;;;;;11.75;4.35;;;;;;;36.10;20.17;99996.94;4973775;28;20180;-67
2022/07/20 11:28:51;;;;;;;7.07;4.68;;;;;;;35.69;20.51;99997.38;4973117;28;20673;-67